Buoy 14555

sailwx.info

Track history (hours):
 
Tides and Currents Weather Stations Pressure Air Temp Water Temp Dewpoint Dewpoint Depression Visibility Wind Speed Wind Dir Waves Ship Positions

Drifting buoy 14555

Last reported at 2018-May-29 09:00 UTC. Time now 2018-Jun-17 23:49 UTC.
Position S 21°13' E 004°58'.
Warning: this ship's position is 19 days out of date.

Barometer 1023.2 mb
Water temperature 21.0 ° C

Date/timePositionNaut miles runAvg speedWind from/ knotsBaromVisibWave heightAir tempDewpointWater temp
2018-May-29 09:00S 21°13' E 004°58'2 1.6 1023.2 21.0
2018-May-29 08:00S 21°14' E 004°59'1 0.6 1022.9 21.0
2018-May-29 07:00S 21°14' E 005°00'1 0.8 1022.2 21.0
2018-May-29 06:00S 21°15' E 005°01'1 0.8 1021.4 21.0
2018-May-29 05:00S 21°16' E 005°01'1 0.8 1020.9 21.0
2018-May-29 04:00S 21°16' E 005°02'0 0.0 1020.8 21.0
2018-May-29 03:00S 21°16' E 005°02'3 0.6 1021.0 21.0
2018-May-28 22:00S 21°18' E 005°04'1 1.3 1022.8 21.1
2018-May-28 21:00S 21°19' E 005°05'1 0.6 1022.7 21.0
2018-May-28 20:00S 21°19' E 005°05'2 0.9 1022.5 21.0
2018-May-28 18:00S 21°20' E 005°07'2 2.1 1021.6 21.1
2018-May-28 17:00S 21°21' E 005°09'0 0.0 1021.1 21.1
2018-May-28 16:00S 21°21' E 005°09'0 0.0 1020.8 21.1
2018-May-28 15:00S 21°21' E 005°09'5 0.8 1020.6 21.1
2018-May-28 09:00S 21°24' E 005°13'2 1.2 1022.6 21.1
2018-May-28 07:00S 21°26' E 005°15'1 0.6 1021.4 21.1
2018-May-28 06:00S 21°26' E 005°15'1 1.1 1020.8 21.1
2018-May-28 05:00S 21°26' E 005°16'0 0.0 1020.3 21.1
2018-May-28 04:00S 21°26' E 005°16'1 0.8 1020.3 21.1
2018-May-28 03:00S 21°27' E 005°17'0 0.0 1020.4 21.1
2018-May-28 02:00S 21°27' E 005°17'4 1.0 1020.6 21.1
2018-May-27 22:00S 21°29' E 005°20'0 0.0 1020.8 21.1
2018-May-27 21:00S 21°29' E 005°20'1 0.8 1020.7 21.1
2018-May-27 20:00S 21°30' E 005°21'1 0.8 1020.3 21.2
2018-May-27 19:00S 21°31' E 005°22'0 0.0 1020.1 21.2
2018-May-27 18:00S 21°31' E 005°22'1 1.3 1019.6 21.1
2018-May-27 17:00S 21°31' E 005°23'1 0.8 1018.7 21.1
2018-May-27 16:00S 21°32' E 005°22'0 0.0 1018.8 21.2
2018-May-27 15:00S 21°32' E 005°22'6 1.0 1018.3 21.2
2018-May-27 09:00S 21°33' E 005°28'0 0.0 1020.4 21.1
2018-May-27 08:00S 21°33' E 005°28'2 1.6 1019.9 21.1
2018-May-27 07:00S 21°34' E 005°29'1 0.6 1019.1 21.1
2018-May-27 06:00S 21°34' E 005°30'1 0.6 1018.9 21.1
2018-May-27 05:00S 21°34' E 005°31'3 2.9 1018.7 21.1
2018-May-27 04:00S 21°35' E 005°34'3 2.5 1018.5 21.1
2018-May-27 03:00S 21°36' E 005°36'3 2.5 1018.5 21.1
2018-May-27 02:00S 21°35' E 005°34'4 0.7 1018.7 21.1
2018-May-26 21:00S 21°36' E 005°37'0 0.0 1020.0 21.2
2018-May-26 20:00S 21°36' E 005°37'1 1.3 1019.8 21.2
2018-May-26 19:00S 21°37' E 005°38'0 0.0 1019.7 21.2
2018-May-26 18:00S 21°37' E 005°38'1 1.1 1019.3 21.2
2018-May-26 17:00S 21°37' E 005°40'0 0.0 1018.8 21.2
2018-May-26 16:00S 21°37' E 005°40'2 1.8 1018.5 21.2
2018-May-26 15:00S 21°36' E 005°41'0 0.0 1018.6 21.2
2018-May-26 14:00S 21°36' E 005°41'0 0.0 1018.3 21.2
2018-May-26 13:00S 21°36' E 005°41'6 1.4 1018.4 21.2
2018-May-26 09:00S 21°38' E 005°47'1 1.3 1019.9 21.2
2018-May-26 08:00S 21°39' E 005°48'1 1.1 1019.7 21.2
2018-May-26 07:00S 21°39' E 005°49'1 0.6 1019.2 21.2
2018-May-26 06:00S 21°39' E 005°50'1 0.6 1018.8 21.2
2018-May-26 05:00S 21°39' E 005°49'6 3.2 1018.4 21.2
2018-May-26 03:00S 21°42' E 005°55'0 0.0 1018.2 21.2
2018-May-26 02:00S 21°42' E 005°55'0 0.0 1018.4 21.2
2018-May-26 01:00S 21°42' E 005°55'0 0.0 1018.9 21.2
2018-May-25 22:00S 21°42' E 005°55'0 0.0 1019.8 21.2
2018-May-25 21:00S 21°42' E 005°55'3 2.9 1020.1 21.2
2018-May-25 20:00S 21°43' E 005°58'1 0.4 1019.6 21.3
2018-May-25 18:00S 21°43' E 005°59'1 1.3 1019.0 21.3
2018-May-25 17:00S 21°44' E 006°00'0 0.0 1018.8 21.2
2018-May-25 16:00S 21°44' E 006°00'2 1.6 1018.6 21.3
2018-May-25 15:00S 21°45' E 006°01'0 0.0 1018.2 21.3
2018-May-25 14:00S 21°45' E 006°01'0 0.0 1018.2 21.3
2018-May-25 13:00S 21°45' E 006°01'5 1.3 1018.4 21.3
2018-May-25 09:00S 21°47' E 006°06'0 0.0 1021.0 21.3
2018-May-25 08:00S 21°47' E 006°06'2 1.0 1020.7 21.2
2018-May-25 06:00S 21°49' E 006°08'1 0.8 1020.3 21.2
2018-May-25 05:00S 21°49' E 006°08'1 0.6 1019.7 21.3
2018-May-25 04:00S 21°50' E 006°08'2 1.6 1019.3 21.3
2018-May-25 03:00S 21°51' E 006°10'0 0.0 1019.3 21.3
2018-May-25 02:00S 21°51' E 006°10'0 0.0 1019.4 21.3
2018-May-25 01:00S 21°51' E 006°10'3 0.8 1019.6 21.3
2018-May-24 22:00S 21°52' E 006°12'1 0.8 1020.3 21.3
2018-May-24 21:00S 21°53' E 006°13'1 0.6 1019.9 21.3
2018-May-24 20:00S 21°53' E 006°13'1 1.3 1020.0 21.3
2018-May-24 19:00S 21°54' E 006°14'0 0.0 1019.4 21.3
2018-May-24 18:00S 21°54' E 006°14'1 1.3 1019.1 21.3
2018-May-24 17:00S 21°55' E 006°15'0 0.0 1018.4 21.3
2018-May-24 16:00S 21°55' E 006°15'1 0.8 1018.0 21.3
2018-May-24 15:00S 21°55' E 006°16'0 0.0 1018.0 21.3
2018-May-24 14:00S 21°55' E 006°16'3 0.7 1018.3 21.3
2018-May-24 10:00S 21°58' E 006°17'2 2.1 1020.2 21.3
2018-May-24 09:00S 21°59' E 006°19'0 0.0 1020.4 21.3
2018-May-24 08:00S 21°59' E 006°19'1 0.6 1020.3 21.3
2018-May-24 07:00S 21°59' E 006°19'1 0.8 1020.0 21.3
2018-May-24 06:00S 22°00' E 006°19'1 0.6 1019.4 21.3
2018-May-24 05:00S 22°01' E 006°19'1 0.6 1019.1 21.3
2018-May-24 04:00S 22°01' E 006°20'1 1.3 1019.0 21.3
2018-May-24 03:00S 22°02' E 006°20'0 0.0 1019.1 21.3
2018-May-24 02:00S 22°02' E 006°20'0 0.0 1019.2 21.3
2018-May-24 01:00S 22°02' E 006°20'3 1.1 1019.6 21.3
2018-May-23 22:00S 22°04' E 006°23'0 0.0 1020.4 21.3
2018-May-23 21:00S 22°04' E 006°23'1 0.8 1020.4 21.2
2018-May-23 20:00S 22°05' E 006°22'1 0.8 1020.1 21.2
2018-May-23 19:00S 22°05' E 006°23'2 2.5 1019.7 21.2
2018-May-23 18:00S 22°07' E 006°25'1 0.7 1019.6 21.2
2018-May-23 16:00S 22°08' E 006°25'0 0.0 1019.0 21.3
2018-May-23 14:00S 22°08' E 006°25'4 0.7 1018.6 21.3
2018-May-23 09:00S 22°11' E 006°28'0 0.0 1020.5 21.2
2018-May-23 08:00S 22°11' E 006°28'1 1.3 1020.0 21.2
2018-May-23 07:00S 22°12' E 006°29'1 0.8 1019.9 21.2
2018-May-23 06:00S 22°13' E 006°29'0 0.0 1019.3 21.2
2018-May-23 05:00S 22°13' E 006°29'2 2.1 1019.1 21.2
2018-May-23 04:00S 22°14' E 006°31'0 0.0 1018.9 21.2
2018-May-23 03:00S 22°14' E 006°31'0 0.0 1019.2 21.2
2018-May-23 02:00S 22°14' E 006°31'0 0.0 1019.6 21.2
2018-May-23 01:00S 22°14' E 006°31'3 0.9 1019.8 21.1
2018-May-22 22:00S 22°17' E 006°32'1 1.3 1020.7 21.1
2018-May-22 21:00S 22°18' E 006°32'1 0.8 1020.8 21.1
2018-May-22 20:00S 22°19' E 006°33'1 0.6 1020.4 21.1
2018-May-22 19:00S 22°19' E 006°32'1 1.3 1019.8 21.2
2018-May-22 18:00S 22°20' E 006°33'0 0.0 1019.5 21.2
2018-May-22 17:00S 22°20' E 006°33'0 0.0 1019.1 21.2
2018-May-22 16:00S 22°20' E 006°33'1 1.2 1018.8 21.3
2018-May-22 15:00S 22°21' E 006°33'0 0.0 1018.6 21.2
2018-May-22 14:00S 22°21' E 006°33'3 0.8 1018.5 21.2
2018-May-22 10:00S 22°23' E 006°35'2 1.6 1021.0 21.1
2018-May-22 09:00S 22°25' E 006°37'1 0.6 1021.3 21.0
2018-May-22 08:00S 22°25' E 006°37'0 0.0 1021.0 21.0
2018-May-22 07:00S 22°25' E 006°37'1 0.8 1020.8 20.9
2018-May-22 06:00S 22°26' E 006°37'1 1.3 1020.0 20.9
2018-May-22 05:00S 22°27' E 006°38'0 0.0 1019.2 20.9
2018-May-22 04:00S 22°27' E 006°38'1 1.3 1019.3 20.9
2018-May-22 03:00S 22°28' E 006°38'0 0.0 1019.4 20.9
2018-May-22 02:00S 22°28' E 006°38'0 0.0 1019.8 20.9
2018-May-22 01:00S 22°28' E 006°38'3 1.1 1020.1 20.9
2018-May-21 22:00S 22°31' E 006°40'0 0.0 1020.6 20.9
2018-May-21 21:00S 22°31' E 006°40'1 0.6 1020.3 20.9
2018-May-21 20:00S 22°32' E 006°40'2 1.6 1020.3 20.8
2018-May-21 19:00S 22°33' E 006°41'0 0.0 1020.1 20.7
2018-May-21 18:00S 22°33' E 006°41'1 0.8 1019.8 20.7
2018-May-21 17:00S 22°34' E 006°42'1 1.1 1019.4 20.6
2018-May-21 16:00S 22°34' E 006°43'1 0.6 1019.2 20.6
2018-May-21 15:00S 22°34' E 006°43'0 0.0 1018.9 20.6
2018-May-21 14:00S 22°34' E 006°43'7 1.2 1018.8 20.7
2018-May-21 08:00S 22°40' E 006°47'0 0.0 1020.4 20.6
2018-May-21 07:00S 22°40' E 006°47'0 0.0 1020.2 20.6
2018-May-21 06:00S 22°40' E 006°47'1 1.3 1019.9 20.6
2018-May-21 05:00S 22°41' E 006°49'2 1.6 1019.3 20.6
2018-May-21 04:00S 22°42' E 006°50'0 0.0 1019.2 20.6
2018-May-21 02:00S 22°42' E 006°50'3 0.8 1019.2 20.6
2018-May-20 22:00S 22°45' E 006°51'1 1.3 1019.3 20.7
2018-May-20 21:00S 22°46' E 006°52'1 0.6 1019.1 20.9
2018-May-20 20:00S 22°46' E 006°52'1 0.8 1018.9 20.9
2018-May-20 19:00S 22°47' E 006°53'1 0.6 1018.4 20.9
2018-May-20 18:00S 22°47' E 006°53'1 1.3 1017.9 20.9
2018-May-20 17:00S 22°47' E 006°55'1 0.8 1017.4 21.0
2018-May-20 16:00S 22°48' E 006°55'0 0.0 1016.9 21.0
2018-May-20 15:00S 22°48' E 006°55'4 0.7 1016.7 21.0
2018-May-20 09:00S 22°51' E 006°59'2 1.8 1018.3 20.9
2018-May-20 08:00S 22°52' E 007°01'1 1.3 1018.0 20.9
2018-May-20 07:00S 22°53' E 007°00'2 1.1 1017.5 20.9
2018-May-20 05:00S 22°53' E 007°02'3 2.6 1016.1 20.9
2018-May-20 04:00S 22°55' E 007°04'1 0.6 1015.7 20.9
2018-May-20 03:00S 22°55' E 007°03'0 0.0 1015.8 20.9
2018-May-20 02:00S 22°55' E 007°03'4 0.9 1016.0 20.9
2018-May-19 22:00S 22°59' E 007°04'1 0.8 1017.1 20.9
2018-May-19 21:00S 22°59' E 007°04'1 0.6 1017.0 20.9
2018-May-19 20:00S 23°00' E 007°04'1 1.3 1016.7 20.9
2018-May-19 19:00S 23°01' E 007°05'1 0.6 1016.4 21.0
2018-May-19 18:00S 23°02' E 007°05'1 0.8 1015.8 21.0
2018-May-19 17:00S 23°02' E 007°04'1 1.2 1015.4 21.0
2018-May-19 16:00S 23°04' E 007°04'5 4.8 1015.1 21.0
2018-May-19 15:00S 23°08' E 007°04'0 0.0 1015.0 21.0
2018-May-19 10:00S 23°08' E 007°04'1 0.6 1016.1 20.9
2018-May-19 09:00S 23°09' E 007°04'   1016.0 20.9
Track history (hours):
 
Tides and Currents Weather Stations Pressure Air Temp Water Temp Dewpoint Dewpoint Depression Visibility Wind Speed Wind Dir Waves Ship Positions

Drifting buoy 14555

Last reported at 2018-May-29 09:00 UTC. Time now 2018-Jun-17 23:49 UTC.
Position S 21°13' E 004°58'.
Warning: this ship's position is 19 days out of date.

Barometer 1023.2 mb
Water temperature 21.0 ° C

Date/timePositionNaut miles runAvg speedWind from/ knotsBaromVisibWave heightAir tempDewpointWater temp
2018-May-29 09:00S 21°13' E 004°58'2 1.6 1023.2 21.0
2018-May-29 08:00S 21°14' E 004°59'1 0.6 1022.9 21.0
2018-May-29 07:00S 21°14' E 005°00'1 0.8 1022.2 21.0
2018-May-29 06:00S 21°15' E 005°01'1 0.8 1021.4 21.0
2018-May-29 05:00S 21°16' E 005°01'1 0.8 1020.9 21.0
2018-May-29 04:00S 21°16' E 005°02'0 0.0 1020.8 21.0
2018-May-29 03:00S 21°16' E 005°02'3 0.6 1021.0 21.0
2018-May-28 22:00S 21°18' E 005°04'1 1.3 1022.8 21.1
2018-May-28 21:00S 21°19' E 005°05'1 0.6 1022.7 21.0
2018-May-28 20:00S 21°19' E 005°05'2 0.9 1022.5 21.0
2018-May-28 18:00S 21°20' E 005°07'2 2.1 1021.6 21.1
2018-May-28 17:00S 21°21' E 005°09'0 0.0 1021.1 21.1
2018-May-28 16:00S 21°21' E 005°09'0 0.0 1020.8 21.1
2018-May-28 15:00S 21°21' E 005°09'5 0.8 1020.6 21.1
2018-May-28 09:00S 21°24' E 005°13'2 1.2 1022.6 21.1
2018-May-28 07:00S 21°26' E 005°15'1 0.6 1021.4 21.1
2018-May-28 06:00S 21°26' E 005°15'1 1.1 1020.8 21.1
2018-May-28 05:00S 21°26' E 005°16'0 0.0 1020.3 21.1
2018-May-28 04:00S 21°26' E 005°16'1 0.8 1020.3 21.1
2018-May-28 03:00S 21°27' E 005°17'0 0.0 1020.4 21.1
2018-May-28 02:00S 21°27' E 005°17'4 1.0 1020.6 21.1
2018-May-27 22:00S 21°29' E 005°20'0 0.0 1020.8 21.1
2018-May-27 21:00S 21°29' E 005°20'1 0.8 1020.7 21.1
2018-May-27 20:00S 21°30' E 005°21'1 0.8 1020.3 21.2
2018-May-27 19:00S 21°31' E 005°22'0 0.0 1020.1 21.2
2018-May-27 18:00S 21°31' E 005°22'1 1.3 1019.6 21.1
2018-May-27 17:00S 21°31' E 005°23'1 0.8 1018.7 21.1
2018-May-27 16:00S 21°32' E 005°22'0 0.0 1018.8 21.2
2018-May-27 15:00S 21°32' E 005°22'6 1.0 1018.3 21.2
2018-May-27 09:00S 21°33' E 005°28'0 0.0 1020.4 21.1
2018-May-27 08:00S 21°33' E 005°28'2 1.6 1019.9 21.1
2018-May-27 07:00S 21°34' E 005°29'1 0.6 1019.1 21.1
2018-May-27 06:00S 21°34' E 005°30'1 0.6 1018.9 21.1
2018-May-27 05:00S 21°34' E 005°31'3 2.9 1018.7 21.1
2018-May-27 04:00S 21°35' E 005°34'3 2.5 1018.5 21.1
2018-May-27 03:00S 21°36' E 005°36'3 2.5 1018.5 21.1
2018-May-27 02:00S 21°35' E 005°34'4 0.7 1018.7 21.1
2018-May-26 21:00S 21°36' E 005°37'0 0.0 1020.0 21.2
2018-May-26 20:00S 21°36' E 005°37'1 1.3 1019.8 21.2
2018-May-26 19:00S 21°37' E 005°38'0 0.0 1019.7 21.2
2018-May-26 18:00S 21°37' E 005°38'1 1.1 1019.3 21.2
2018-May-26 17:00S 21°37' E 005°40'0 0.0 1018.8 21.2
2018-May-26 16:00S 21°37' E 005°40'2 1.8 1018.5 21.2
2018-May-26 15:00S 21°36' E 005°41'0 0.0 1018.6 21.2
2018-May-26 14:00S 21°36' E 005°41'0 0.0 1018.3 21.2
2018-May-26 13:00S 21°36' E 005°41'6 1.4 1018.4 21.2
2018-May-26 09:00S 21°38' E 005°47'1 1.3 1019.9 21.2
2018-May-26 08:00S 21°39' E 005°48'1 1.1 1019.7 21.2
2018-May-26 07:00S 21°39' E 005°49'1 0.6 1019.2 21.2
2018-May-26 06:00S 21°39' E 005°50'1 0.6 1018.8 21.2
2018-May-26 05:00S 21°39' E 005°49'6 3.2 1018.4 21.2
2018-May-26 03:00S 21°42' E 005°55'0 0.0 1018.2 21.2
2018-May-26 02:00S 21°42' E 005°55'0 0.0 1018.4 21.2
2018-May-26 01:00S 21°42' E 005°55'0 0.0 1018.9 21.2
2018-May-25 22:00S 21°42' E 005°55'0 0.0 1019.8 21.2
2018-May-25 21:00S 21°42' E 005°55'3 2.9 1020.1 21.2
2018-May-25 20:00S 21°43' E 005°58'1 0.4 1019.6 21.3
2018-May-25 18:00S 21°43' E 005°59'1 1.3 1019.0 21.3
2018-May-25 17:00S 21°44' E 006°00'0 0.0 1018.8 21.2
2018-May-25 16:00S 21°44' E 006°00'2 1.6 1018.6 21.3
2018-May-25 15:00S 21°45' E 006°01'0 0.0 1018.2 21.3
2018-May-25 14:00S 21°45' E 006°01'0 0.0 1018.2 21.3
2018-May-25 13:00S 21°45' E 006°01'5 1.3 1018.4 21.3
2018-May-25 09:00S 21°47' E 006°06'0 0.0 1021.0 21.3
2018-May-25 08:00S 21°47' E 006°06'2 1.0 1020.7 21.2
2018-May-25 06:00S 21°49' E 006°08'1 0.8 1020.3 21.2
2018-May-25 05:00S 21°49' E 006°08'1 0.6 1019.7 21.3
2018-May-25 04:00S 21°50' E 006°08'2 1.6 1019.3 21.3
2018-May-25 03:00S 21°51' E 006°10'0 0.0 1019.3 21.3
2018-May-25 02:00S 21°51' E 006°10'0 0.0 1019.4 21.3
2018-May-25 01:00S 21°51' E 006°10'3 0.8 1019.6 21.3
2018-May-24 22:00S 21°52' E 006°12'1 0.8 1020.3 21.3
2018-May-24 21:00S 21°53' E 006°13'1 0.6 1019.9 21.3
2018-May-24 20:00S 21°53' E 006°13'1 1.3 1020.0 21.3
2018-May-24 19:00S 21°54' E 006°14'0 0.0 1019.4 21.3
2018-May-24 18:00S 21°54' E 006°14'1 1.3 1019.1 21.3
2018-May-24 17:00S 21°55' E 006°15'0 0.0 1018.4 21.3
2018-May-24 16:00S 21°55' E 006°15'1 0.8 1018.0 21.3
2018-May-24 15:00S 21°55' E 006°16'0 0.0 1018.0 21.3
2018-May-24 14:00S 21°55' E 006°16'3 0.7 1018.3 21.3
2018-May-24 10:00S 21°58' E 006°17'2 2.1 1020.2 21.3
2018-May-24 09:00S 21°59' E 006°19'0 0.0 1020.4 21.3
2018-May-24 08:00S 21°59' E 006°19'1 0.6 1020.3 21.3
2018-May-24 07:00S 21°59' E 006°19'1 0.8 1020.0 21.3
2018-May-24 06:00S 22°00' E 006°19'1 0.6 1019.4 21.3
2018-May-24 05:00S 22°01' E 006°19'1 0.6 1019.1 21.3
2018-May-24 04:00S 22°01' E 006°20'1 1.3 1019.0 21.3
2018-May-24 03:00S 22°02' E 006°20'0 0.0 1019.1 21.3
2018-May-24 02:00S 22°02' E 006°20'0 0.0 1019.2 21.3
2018-May-24 01:00S 22°02' E 006°20'3 1.1 1019.6 21.3
2018-May-23 22:00S 22°04' E 006°23'0 0.0 1020.4 21.3
2018-May-23 21:00S 22°04' E 006°23'1 0.8 1020.4 21.2
2018-May-23 20:00S 22°05' E 006°22'1 0.8 1020.1 21.2
2018-May-23 19:00S 22°05' E 006°23'2 2.5 1019.7 21.2
2018-May-23 18:00S 22°07' E 006°25'1 0.7 1019.6 21.2
2018-May-23 16:00S 22°08' E 006°25'0 0.0 1019.0 21.3
2018-May-23 14:00S 22°08' E 006°25'4 0.7 1018.6 21.3
2018-May-23 09:00S 22°11' E 006°28'0 0.0 1020.5 21.2
2018-May-23 08:00S 22°11' E 006°28'1 1.3 1020.0 21.2
2018-May-23 07:00S 22°12' E 006°29'1 0.8 1019.9 21.2
2018-May-23 06:00S 22°13' E 006°29'0 0.0 1019.3 21.2
2018-May-23 05:00S 22°13' E 006°29'2 2.1 1019.1 21.2
2018-May-23 04:00S 22°14' E 006°31'0 0.0 1018.9 21.2
2018-May-23 03:00S 22°14' E 006°31'0 0.0 1019.2 21.2
2018-May-23 02:00S 22°14' E 006°31'0 0.0 1019.6 21.2
2018-May-23 01:00S 22°14' E 006°31'3 0.9 1019.8 21.1
2018-May-22 22:00S 22°17' E 006°32'1 1.3 1020.7 21.1
2018-May-22 21:00S 22°18' E 006°32'1 0.8 1020.8 21.1
2018-May-22 20:00S 22°19' E 006°33'1 0.6 1020.4 21.1
2018-May-22 19:00S 22°19' E 006°32'1 1.3 1019.8 21.2
2018-May-22 18:00S 22°20' E 006°33'0 0.0 1019.5 21.2
2018-May-22 17:00S 22°20' E 006°33'0 0.0 1019.1 21.2
2018-May-22 16:00S 22°20' E 006°33'1 1.2 1018.8 21.3
2018-May-22 15:00S 22°21' E 006°33'0 0.0 1018.6 21.2
2018-May-22 14:00S 22°21' E 006°33'3 0.8 1018.5 21.2
2018-May-22 10:00S 22°23' E 006°35'2 1.6 1021.0 21.1
2018-May-22 09:00S 22°25' E 006°37'1 0.6 1021.3 21.0
2018-May-22 08:00S 22°25' E 006°37'0 0.0 1021.0 21.0
2018-May-22 07:00S 22°25' E 006°37'1 0.8 1020.8 20.9
2018-May-22 06:00S 22°26' E 006°37'1 1.3 1020.0 20.9
2018-May-22 05:00S 22°27' E 006°38'0 0.0 1019.2 20.9
2018-May-22 04:00S 22°27' E 006°38'1 1.3 1019.3 20.9
2018-May-22 03:00S 22°28' E 006°38'0 0.0 1019.4 20.9
2018-May-22 02:00S 22°28' E 006°38'0 0.0 1019.8 20.9
2018-May-22 01:00S 22°28' E 006°38'3 1.1 1020.1 20.9
2018-May-21 22:00S 22°31' E 006°40'0 0.0 1020.6 20.9
2018-May-21 21:00S 22°31' E 006°40'1 0.6 1020.3 20.9
2018-May-21 20:00S 22°32' E 006°40'2 1.6 1020.3 20.8
2018-May-21 19:00S 22°33' E 006°41'0 0.0 1020.1 20.7
2018-May-21 18:00S 22°33' E 006°41'1 0.8 1019.8 20.7
2018-May-21 17:00S 22°34' E 006°42'1 1.1 1019.4 20.6
2018-May-21 16:00S 22°34' E 006°43'1 0.6 1019.2 20.6
2018-May-21 15:00S 22°34' E 006°43'0 0.0 1018.9 20.6
2018-May-21 14:00S 22°34' E 006°43'7 1.2 1018.8 20.7
2018-May-21 08:00S 22°40' E 006°47'0 0.0 1020.4 20.6
2018-May-21 07:00S 22°40' E 006°47'0 0.0 1020.2 20.6
2018-May-21 06:00S 22°40' E 006°47'1 1.3 1019.9 20.6
2018-May-21 05:00S 22°41' E 006°49'2 1.6 1019.3 20.6
2018-May-21 04:00S 22°42' E 006°50'0 0.0 1019.2 20.6
2018-May-21 02:00S 22°42' E 006°50'3 0.8 1019.2 20.6
2018-May-20 22:00S 22°45' E 006°51'1 1.3 1019.3 20.7
2018-May-20 21:00S 22°46' E 006°52'1 0.6 1019.1 20.9
2018-May-20 20:00S 22°46' E 006°52'1 0.8 1018.9 20.9
2018-May-20 19:00S 22°47' E 006°53'1 0.6 1018.4 20.9
2018-May-20 18:00S 22°47' E 006°53'1 1.3 1017.9 20.9
2018-May-20 17:00S 22°47' E 006°55'1 0.8 1017.4 21.0
2018-May-20 16:00S 22°48' E 006°55'0 0.0 1016.9 21.0
2018-May-20 15:00S 22°48' E 006°55'4 0.7 1016.7 21.0
2018-May-20 09:00S 22°51' E 006°59'2 1.8 1018.3 20.9
2018-May-20 08:00S 22°52' E 007°01'1 1.3 1018.0 20.9
2018-May-20 07:00S 22°53' E 007°00'2 1.1 1017.5 20.9
2018-May-20 05:00S 22°53' E 007°02'3 2.6 1016.1 20.9
2018-May-20 04:00S 22°55' E 007°04'1 0.6 1015.7 20.9
2018-May-20 03:00S 22°55' E 007°03'0 0.0 1015.8 20.9
2018-May-20 02:00S 22°55' E 007°03'4 0.9 1016.0 20.9
2018-May-19 22:00S 22°59' E 007°04'1 0.8 1017.1 20.9
2018-May-19 21:00S 22°59' E 007°04'1 0.6 1017.0 20.9
2018-May-19 20:00S 23°00' E 007°04'1 1.3 1016.7 20.9
2018-May-19 19:00S 23°01' E 007°05'1 0.6 1016.4 21.0
2018-May-19 18:00S 23°02' E 007°05'1 0.8 1015.8 21.0
2018-May-19 17:00S 23°02' E 007°04'1 1.2 1015.4 21.0
2018-May-19 16:00S 23°04' E 007°04'5 4.8 1015.1 21.0
2018-May-19 15:00S 23°08' E 007°04'0 0.0 1015.0 21.0
2018-May-19 10:00S 23°08' E 007°04'1 0.6 1016.1 20.9
2018-May-19 09:00S 23°09' E 007°04'   1016.0 20.9

Dump ship's entire track history